DEVICE NETWORK
Gateway Status
13 ESP · realtime ~1s · history 60s
Weather
WS-MOD-01
ONLINE
Actuator
ACT-MOD-01
OFFLINE
Mainboard L3
MB-L3-01
ONLINE
Mainboard L5
MB-L5-01
ONLINE
Remote AC
AC-REMOTE-01
ONLINE
PZEM L3-01
PWR-L3-01
OFFLINE
PZEM L3-02
PWR-L3-02
OFFLINE
PZEM L3-03
PWR-L3-03
OFFLINE
PZEM L3-04
PWR-L3-04
OFFLINE
PZEM L5-01
PWR-L5-01
ONLINE
PZEM L5-02
PWR-L5-02
ONLINE
PZEM L5-03
PWR-L5-03
OFFLINE
PZEM L5-04
PWR-L5-04
OFFLINE
REPORT FILTER
DATABASE HISTORY
Periode & Sensor
REPORT RESULT
Data Sensor
07/09/2026 — 07/09/2026
EXPORT CSV
| NO | TANGGAL | WAKTU | DEVICE | CHANNEL | SENSOR | VALUE | UNIT |
|---|---|---|---|---|---|---|---|
| 501 | 07/09/2026 | 04:52:00 | MB-L3-01Mainboard Lantai 3 | L3-SHT-01-RH | SHT20 1 Humidity | 47.20 | %RH |
| 502 | 07/09/2026 | 04:52:00 | MB-L3-01Mainboard Lantai 3 | L3-LUX-02 | Illuminance / LUX 2 | 0.20 | lux |
| 503 | 07/09/2026 | 04:52:00 | MB-L5-01Mainboard Lantai 5 | L5-LUX-06 | Illuminance / LUX 6 | 0.10 | lux |
| 504 | 07/09/2026 | 04:52:00 | PWR-L5-01Power Meter L5 PZEM 01 | PZEM-L5-01-ENERGY | PZEM L5-01 Energy | 0.11 | kWh |
| 505 | 07/09/2026 | 04:52:00 | PWR-L5-02Power Meter L5 PZEM 02 | PZEM-L5-02-PF | PZEM L5-02 Power Factor | 0.00 | |
| 506 | 07/09/2026 | 04:52:00 | MB-L3-01Mainboard Lantai 3 | L3-LUX-06 | Illuminance / LUX 6 | 0.30 | lux |
| 507 | 07/09/2026 | 04:52:00 | MB-L5-01Mainboard Lantai 5 | L5-SHT-01-RH | SHT20 1 Humidity | 47.30 | %RH |
| 508 | 07/09/2026 | 04:52:00 | MB-L5-01Mainboard Lantai 5 | L5-ST-02 | Surface Temperature 2 | 21.80 | °C |
| 509 | 07/09/2026 | 04:52:00 | MB-L5-01Mainboard Lantai 5 | L5-LUX-03 | Illuminance / LUX 3 | 0.10 | lux |
| 510 | 07/09/2026 | 04:52:00 | WS-MOD-01Weather Station Module | WS-TEMP | Suhu Udara | 18.00 | °C |
| 511 | 07/09/2026 | 04:52:00 | MB-L3-01Mainboard Lantai 3 | L3-AI-05 | Analog Input 5 | 3.12 | V |
| 512 | 07/09/2026 | 04:52:00 | MB-L3-01Mainboard Lantai 3 | L3-RAD-01 | Radiation 1 | 1.00 | W/m² |
| 513 | 07/09/2026 | 04:52:00 | PWR-L5-01Power Meter L5 PZEM 01 | PZEM-L5-01-VOLT | PZEM L5-01 Voltage | 226.10 | V |
| 514 | 07/09/2026 | 04:52:00 | PWR-L5-02Power Meter L5 PZEM 02 | PZEM-L5-02-POWER | PZEM L5-02 Active Power | 0.00 | W |
| 515 | 07/09/2026 | 04:52:00 | MB-L5-01Mainboard Lantai 5 | L5-BGT-03 | Black Globe Temperature 3 | 25.70 | °C |
| 516 | 07/09/2026 | 04:52:00 | MB-L5-01Mainboard Lantai 5 | L5-AI-05 | Analog Input 5 | 3.05 | V |
| 517 | 07/09/2026 | 04:52:00 | MB-L5-01Mainboard Lantai 5 | L5-RAD-01 | Radiation 1 | 1.00 | W/m² |
| 518 | 07/09/2026 | 04:52:00 | MB-L3-01Mainboard Lantai 3 | L3-AI-02 | Analog Input 2 | 3.12 | V |
| 519 | 07/09/2026 | 04:52:00 | MB-L3-01Mainboard Lantai 3 | L3-SHT-02-RH | SHT20 2 Humidity | 46.40 | %RH |
| 520 | 07/09/2026 | 04:52:00 | MB-L3-01Mainboard Lantai 3 | L3-LUX-04 | Illuminance / LUX 4 | 0.10 | lux |
| 521 | 07/09/2026 | 04:52:00 | PWR-L5-01Power Meter L5 PZEM 01 | PZEM-L5-01-PF | PZEM L5-01 Power Factor | 0.38 | |
| 522 | 07/09/2026 | 04:52:00 | AC-REMOTE-01Remote AC | AC-SETPOINT | AC Set Temperature | 23.00 | °C |
| 523 | 07/09/2026 | 04:52:00 | MB-L5-01Mainboard Lantai 5 | L5-AI-02 | Analog Input 2 | 3.05 | V |
| 524 | 07/09/2026 | 04:52:00 | MB-L5-01Mainboard Lantai 5 | L5-SHT-02-RH | SHT20 2 Humidity | 46.40 | %RH |
| 525 | 07/09/2026 | 04:52:00 | MB-L5-01Mainboard Lantai 5 | L5-HFT-02 | Heat Flow Temperature 2 | 21.40 | °C |
| 526 | 07/09/2026 | 04:52:00 | WS-MOD-01Weather Station Module | WS-PRES | Tekanan Udara | 911.00 | hPa |
| 527 | 07/09/2026 | 04:52:00 | MB-L3-01Mainboard Lantai 3 | L3-SHT-01-T | SHT20 1 Temperature | 27.70 | °C |
| 528 | 07/09/2026 | 04:52:00 | MB-L3-01Mainboard Lantai 3 | L3-LUX-01 | Illuminance / LUX 1 | 0.20 | lux |
| 529 | 07/09/2026 | 04:52:00 | PWR-L5-01Power Meter L5 PZEM 01 | PZEM-L5-01-POWER | PZEM L5-01 Active Power | 10.10 | W |
| 530 | 07/09/2026 | 04:52:00 | PWR-L5-02Power Meter L5 PZEM 02 | PZEM-L5-02-FREQ | PZEM L5-02 Frequency | 50.00 | Hz |
| 531 | 07/09/2026 | 04:52:00 | MB-L3-01Mainboard Lantai 3 | L3-LUX-05 | Illuminance / LUX 5 | 0.30 | lux |
| 532 | 07/09/2026 | 04:52:00 | MB-L5-01Mainboard Lantai 5 | L5-SHT-01-T | SHT20 1 Temperature | 27.80 | °C |
| 533 | 07/09/2026 | 04:52:00 | MB-L5-01Mainboard Lantai 5 | L5-ST-01 | Surface Temperature 1 | 22.60 | °C |
| 534 | 07/09/2026 | 04:52:00 | MB-L5-01Mainboard Lantai 5 | L5-LUX-02 | Illuminance / LUX 2 | 0.10 | lux |
| 535 | 07/09/2026 | 04:52:00 | WS-MOD-01Weather Station Module | WS-WIND | Kecepatan Angin | 6.57 | m/s |
| 536 | 07/09/2026 | 04:52:00 | MB-L3-01Mainboard Lantai 3 | L3-AI-04 | Analog Input 4 | 3.12 | V |
| 537 | 07/09/2026 | 04:52:00 | MB-L3-01Mainboard Lantai 3 | L3-SHT-03-RH | SHT20 3 Humidity | 46.30 | %RH |
| 538 | 07/09/2026 | 04:51:00 | WS-MOD-01Weather Station Module | WS-RH | Kelembapan Udara | 82.40 | %RH |
| 539 | 07/09/2026 | 04:51:00 | MB-L3-01Mainboard Lantai 3 | L3-AI-06 | Analog Input 6 | 3.12 | V |
| 540 | 07/09/2026 | 04:51:00 | MB-L3-01Mainboard Lantai 3 | L3-RAD-02 | Radiation 2 | 0.00 | W/m² |
| 541 | 07/09/2026 | 04:51:00 | PWR-L5-02Power Meter L5 PZEM 02 | PZEM-L5-02-ENERGY | PZEM L5-02 Energy | 0.04 | kWh |
| 542 | 07/09/2026 | 04:51:00 | PWR-L5-01Power Meter L5 PZEM 01 | PZEM-L5-01-CURR | PZEM L5-01 Current | 0.12 | A |
| 543 | 07/09/2026 | 04:51:00 | MB-L5-01Mainboard Lantai 5 | L5-AI-06 | Analog Input 6 | 3.05 | V |
| 544 | 07/09/2026 | 04:51:00 | MB-L5-01Mainboard Lantai 5 | L5-RAD-02 | Radiation 2 | 1.00 | W/m² |
| 545 | 07/09/2026 | 04:51:00 | MB-L5-01Mainboard Lantai 5 | L5-LUX-01 | Illuminance / LUX 1 | 0.00 | lux |
| 546 | 07/09/2026 | 04:51:00 | MB-L3-01Mainboard Lantai 3 | L3-AI-03 | Analog Input 3 | 3.12 | V |
| 547 | 07/09/2026 | 04:51:00 | MB-L3-01Mainboard Lantai 3 | L3-SHT-03-T | SHT20 3 Temperature | 28.30 | °C |
| 548 | 07/09/2026 | 04:51:00 | AC-REMOTE-01Remote AC | AC-MODE | AC Operating Mode | 1.00 | code |
| 549 | 07/09/2026 | 04:51:00 | PWR-L5-02Power Meter L5 PZEM 02 | PZEM-L5-02-VOLT | PZEM L5-02 Voltage | 225.80 | V |
| 550 | 07/09/2026 | 04:51:00 | MB-L5-01Mainboard Lantai 5 | L5-AI-03 | Analog Input 3 | 3.05 | V |
| 551 | 07/09/2026 | 04:51:00 | MB-L5-01Mainboard Lantai 5 | L5-SHT-03-T | SHT20 3 Temperature | 28.10 | °C |
| 552 | 07/09/2026 | 04:51:00 | MB-L5-01Mainboard Lantai 5 | L5-BGT-01 | Black Globe Temperature 1 | 26.00 | °C |
| 553 | 07/09/2026 | 04:51:00 | WS-MOD-01Weather Station Module | WS-DIR | Arah Angin | 85.80 | ° |
| 554 | 07/09/2026 | 04:51:00 | MB-L3-01Mainboard Lantai 3 | L3-SHT-01-RH | SHT20 1 Humidity | 47.20 | %RH |
| 555 | 07/09/2026 | 04:51:00 | MB-L3-01Mainboard Lantai 3 | L3-LUX-02 | Illuminance / LUX 2 | 0.20 | lux |
| 556 | 07/09/2026 | 04:51:00 | MB-L5-01Mainboard Lantai 5 | L5-LUX-06 | Illuminance / LUX 6 | 0.10 | lux |
| 557 | 07/09/2026 | 04:51:00 | PWR-L5-01Power Meter L5 PZEM 01 | PZEM-L5-01-ENERGY | PZEM L5-01 Energy | 0.11 | kWh |
| 558 | 07/09/2026 | 04:51:00 | PWR-L5-02Power Meter L5 PZEM 02 | PZEM-L5-02-PF | PZEM L5-02 Power Factor | 0.00 | |
| 559 | 07/09/2026 | 04:51:00 | MB-L3-01Mainboard Lantai 3 | L3-LUX-06 | Illuminance / LUX 6 | 0.30 | lux |
| 560 | 07/09/2026 | 04:51:00 | MB-L5-01Mainboard Lantai 5 | L5-SHT-01-RH | SHT20 1 Humidity | 47.20 | %RH |
| 561 | 07/09/2026 | 04:51:00 | MB-L5-01Mainboard Lantai 5 | L5-ST-02 | Surface Temperature 2 | 21.70 | °C |
| 562 | 07/09/2026 | 04:51:00 | MB-L5-01Mainboard Lantai 5 | L5-LUX-03 | Illuminance / LUX 3 | 0.10 | lux |
| 563 | 07/09/2026 | 04:51:00 | WS-MOD-01Weather Station Module | WS-TEMP | Suhu Udara | 18.10 | °C |
| 564 | 07/09/2026 | 04:51:00 | MB-L3-01Mainboard Lantai 3 | L3-AI-05 | Analog Input 5 | 3.12 | V |
| 565 | 07/09/2026 | 04:51:00 | MB-L3-01Mainboard Lantai 3 | L3-RAD-01 | Radiation 1 | 1.00 | W/m² |
| 566 | 07/09/2026 | 04:51:00 | PWR-L5-01Power Meter L5 PZEM 01 | PZEM-L5-01-VOLT | PZEM L5-01 Voltage | 225.90 | V |
| 567 | 07/09/2026 | 04:51:00 | PWR-L5-02Power Meter L5 PZEM 02 | PZEM-L5-02-POWER | PZEM L5-02 Active Power | 0.00 | W |
| 568 | 07/09/2026 | 04:51:00 | MB-L5-01Mainboard Lantai 5 | L5-BGT-03 | Black Globe Temperature 3 | 25.70 | °C |
| 569 | 07/09/2026 | 04:51:00 | MB-L5-01Mainboard Lantai 5 | L5-AI-05 | Analog Input 5 | 3.05 | V |
| 570 | 07/09/2026 | 04:51:00 | MB-L5-01Mainboard Lantai 5 | L5-RAD-01 | Radiation 1 | 1.00 | W/m² |
| 571 | 07/09/2026 | 04:51:00 | MB-L3-01Mainboard Lantai 3 | L3-AI-02 | Analog Input 2 | 3.12 | V |
| 572 | 07/09/2026 | 04:51:00 | MB-L3-01Mainboard Lantai 3 | L3-SHT-02-RH | SHT20 2 Humidity | 46.50 | %RH |
| 573 | 07/09/2026 | 04:51:00 | MB-L3-01Mainboard Lantai 3 | L3-LUX-04 | Illuminance / LUX 4 | 0.10 | lux |
| 574 | 07/09/2026 | 04:51:00 | PWR-L5-01Power Meter L5 PZEM 01 | PZEM-L5-01-PF | PZEM L5-01 Power Factor | 0.39 | |
| 575 | 07/09/2026 | 04:51:00 | AC-REMOTE-01Remote AC | AC-SETPOINT | AC Set Temperature | 23.00 | °C |
| 576 | 07/09/2026 | 04:51:00 | MB-L5-01Mainboard Lantai 5 | L5-AI-02 | Analog Input 2 | 3.05 | V |
| 577 | 07/09/2026 | 04:51:00 | MB-L5-01Mainboard Lantai 5 | L5-SHT-02-RH | SHT20 2 Humidity | 46.40 | %RH |
| 578 | 07/09/2026 | 04:51:00 | MB-L5-01Mainboard Lantai 5 | L5-HFT-02 | Heat Flow Temperature 2 | 21.30 | °C |
| 579 | 07/09/2026 | 04:51:00 | WS-MOD-01Weather Station Module | WS-PRES | Tekanan Udara | 911.00 | hPa |
| 580 | 07/09/2026 | 04:51:00 | MB-L3-01Mainboard Lantai 3 | L3-SHT-01-T | SHT20 1 Temperature | 27.90 | °C |
| 581 | 07/09/2026 | 04:51:00 | MB-L3-01Mainboard Lantai 3 | L3-LUX-01 | Illuminance / LUX 1 | 0.20 | lux |
| 582 | 07/09/2026 | 04:51:00 | PWR-L5-01Power Meter L5 PZEM 01 | PZEM-L5-01-POWER | PZEM L5-01 Active Power | 10.70 | W |
| 583 | 07/09/2026 | 04:51:00 | PWR-L5-02Power Meter L5 PZEM 02 | PZEM-L5-02-FREQ | PZEM L5-02 Frequency | 50.00 | Hz |
| 584 | 07/09/2026 | 04:51:00 | MB-L3-01Mainboard Lantai 3 | L3-LUX-05 | Illuminance / LUX 5 | 0.30 | lux |
| 585 | 07/09/2026 | 04:51:00 | MB-L5-01Mainboard Lantai 5 | L5-SHT-01-T | SHT20 1 Temperature | 27.80 | °C |
| 586 | 07/09/2026 | 04:51:00 | MB-L5-01Mainboard Lantai 5 | L5-ST-01 | Surface Temperature 1 | 22.50 | °C |
| 587 | 07/09/2026 | 04:51:00 | MB-L5-01Mainboard Lantai 5 | L5-LUX-02 | Illuminance / LUX 2 | 0.10 | lux |
| 588 | 07/09/2026 | 04:51:00 | WS-MOD-01Weather Station Module | WS-WIND | Kecepatan Angin | 6.81 | m/s |
| 589 | 07/09/2026 | 04:51:00 | MB-L3-01Mainboard Lantai 3 | L3-AI-04 | Analog Input 4 | 3.12 | V |
| 590 | 07/09/2026 | 04:51:00 | MB-L3-01Mainboard Lantai 3 | L3-SHT-03-RH | SHT20 3 Humidity | 46.10 | %RH |
| 591 | 07/09/2026 | 04:51:00 | AC-REMOTE-01Remote AC | AC-FAN | AC Fan Speed | 0.00 | code |
| 592 | 07/09/2026 | 04:51:00 | PWR-L5-02Power Meter L5 PZEM 02 | PZEM-L5-02-CURR | PZEM L5-02 Current | 0.00 | A |
| 593 | 07/09/2026 | 04:51:00 | MB-L5-01Mainboard Lantai 5 | L5-AI-04 | Analog Input 4 | 3.05 | V |
| 594 | 07/09/2026 | 04:51:00 | MB-L5-01Mainboard Lantai 5 | L5-SHT-03-RH | SHT20 3 Humidity | 46.80 | %RH |
| 595 | 07/09/2026 | 04:51:00 | MB-L5-01Mainboard Lantai 5 | L5-BGT-02 | Black Globe Temperature 2 | 26.00 | °C |
| 596 | 07/09/2026 | 04:51:00 | MB-L3-01Mainboard Lantai 3 | L3-AI-01 | Analog Input 1 | 3.12 | V |
| 597 | 07/09/2026 | 04:51:00 | MB-L3-01Mainboard Lantai 3 | L3-SHT-02-T | SHT20 2 Temperature | 28.10 | °C |
| 598 | 07/09/2026 | 04:51:00 | MB-L3-01Mainboard Lantai 3 | L3-LUX-03 | Illuminance / LUX 3 | 0.20 | lux |
| 599 | 07/09/2026 | 04:51:00 | AC-REMOTE-01Remote AC | AC-POWER | AC Power State | 1.00 | state |
| 600 | 07/09/2026 | 04:51:00 | PWR-L5-01Power Meter L5 PZEM 01 | PZEM-L5-01-FREQ | PZEM L5-01 Frequency | 49.90 | Hz |
Menampilkan maksimal 100 data per halaman